Fort Lauderdale Hollywood International Airport Fort Lauderdale US
ICAO: KFLL
IATA: FLL
Category: Large
Scheduled Services: Yes

Elevation: 9 ft
TransAlt. 18000 ft.

Airport Communications:
MIAMI APP:118.1
ATIS:135
CLNC DEL:128.4
MIAMI DEP:119.7
GND:121.4
TWR:119.3
UNICOM:122.95

KFLL Zoom In..

Runways:

(A) RW 10L length 9000 ft width 150 ft
ILS 110.10 / hdg 96

(B) RW 10R length 5276 ft width 100 ft
---- / hdg 96

(C) RW 28L length 5276 ft width 100 ft
---- / hdg 276

(D) RW 28R length 9000 ft width 150 ft
ILS 110.70 / hdg 276

Location; KFLL
Day. 20 / Time. 19.53 Zulu
* Altimeter: 29.99
* Temperature: 28° c. 82.4°f.
* Wind from: 160° Speed 14 kn.
Dewpoint: 23° c.
Visibility: 10 Statute Miles.
Clouds: Few 3000 ft.
Clouds: Broken 1000 ft.
Clouds: Broken 15000 ft.
Clouds: Broken 25000 ft.
Conditions: Cumulonimbus.Conditions: Cumulonimbus.

KFLL 201953Z 16014KT 10SM FEW030CB BKN100 BKN150 BKN250 28/23 A2999 RMK AO2 LTG DSNT SW RAB05E23 TSE45 SLP155 CB E-SE MOV NE CB DSNT SE-S SW P0001 T02780233


Wind From 160°
Speed 14 kn.

 
 
jpsmedia.com for Web Design worldairports.se 2018   terms of use